sensor_id;sensor_type;location;lat;lon;timestamp;P1;durP1;ratioP1;P2;durP2;ratioP2
77733;SDS011;66902;41.720;44.796;2024-01-30T00:00:24;11.20;;;9.80;;
77733;SDS011;66902;41.720;44.796;2024-01-30T00:03:19;19.60;;;13.00;;
77733;SDS011;66902;41.720;44.796;2024-01-30T00:05:53;18.60;;;15.40;;
77733;SDS011;66902;41.720;44.796;2024-01-30T00:08:28;15.20;;;13.20;;
77733;SDS011;66902;41.720;44.796;2024-01-30T00:11:02;16.80;;;12.80;;
77733;SDS011;66902;41.720;44.796;2024-01-30T00:13:36;17.20;;;13.50;;
77733;SDS011;66902;41.720;44.796;2024-01-30T00:16:19;17.10;;;13.20;;
77733;SDS011;66902;41.720;44.796;2024-01-30T00:18:54;15.80;;;11.00;;
77733;SDS011;66902;41.720;44.796;2024-01-30T00:21:28;12.60;;;11.30;;
77733;SDS011;66902;41.720;44.796;2024-01-30T00:24:01;12.50;;;9.80;;
77733;SDS011;66902;41.720;44.796;2024-01-30T00:26:35;19.20;;;12.50;;
77733;SDS011;66902;41.720;44.796;2024-01-30T00:29:08;14.50;;;11.70;;
77733;SDS011;66902;41.720;44.796;2024-01-30T00:31:49;18.20;;;12.60;;
77733;SDS011;66902;41.720;44.796;2024-01-30T00:34:22;14.00;;;11.40;;
77733;SDS011;66902;41.720;44.796;2024-01-30T00:36:56;14.10;;;12.00;;
77733;SDS011;66902;41.720;44.796;2024-01-30T00:39:29;18.20;;;14.80;;
77733;SDS011;66902;41.720;44.796;2024-01-30T00:42:03;20.70;;;15.80;;
77733;SDS011;66902;41.720;44.796;2024-01-30T00:44:36;17.70;;;15.50;;
77733;SDS011;66902;41.720;44.796;2024-01-30T00:47:10;18.30;;;16.10;;
77733;SDS011;66902;41.720;44.796;2024-01-30T00:49:43;19.10;;;14.90;;
77733;SDS011;66902;41.720;44.796;2024-01-30T00:52:17;18.70;;;15.70;;
77733;SDS011;66902;41.720;44.796;2024-01-30T00:54:51;21.70;;;17.10;;
77733;SDS011;66902;41.720;44.796;2024-01-30T00:57:24;17.40;;;15.10;;
77733;SDS011;66902;41.720;44.796;2024-01-30T00:59:58;18.40;;;14.60;;
77733;SDS011;66902;41.720;44.796;2024-01-30T01:02:31;21.00;;;16.50;;
77733;SDS011;66902;41.720;44.796;2024-01-30T01:05:05;18.50;;;16.20;;
77733;SDS011;66902;41.720;44.796;2024-01-30T01:07:39;19.30;;;16.50;;
77733;SDS011;66902;41.720;44.796;2024-01-30T01:10:13;19.50;;;16.90;;
77733;SDS011;66902;41.720;44.796;2024-01-30T01:12:47;24.60;;;18.40;;
77733;SDS011;66902;41.720;44.796;2024-01-30T01:15:21;21.90;;;17.10;;
77733;SDS011;66902;41.720;44.796;2024-01-30T01:17:58;24.30;;;18.40;;
77733;SDS011;66902;41.720;44.796;2024-01-30T01:20:32;21.40;;;18.40;;
77733;SDS011;66902;41.720;44.796;2024-01-30T01:23:06;24.00;;;18.10;;
77733;SDS011;66902;41.720;44.796;2024-01-30T01:25:39;23.30;;;17.20;;
77733;SDS011;66902;41.720;44.796;2024-01-30T01:28:12;26.10;;;17.90;;
77733;SDS011;66902;41.720;44.796;2024-01-30T01:30:46;18.80;;;16.80;;
77733;SDS011;66902;41.720;44.796;2024-01-30T01:33:22;22.10;;;18.20;;
77733;SDS011;66902;41.720;44.796;2024-01-30T01:35:56;23.90;;;18.10;;
77733;SDS011;66902;41.720;44.796;2024-01-30T01:38:29;20.00;;;16.50;;
77733;SDS011;66902;41.720;44.796;2024-01-30T01:41:02;21.70;;;17.80;;
77733;SDS011;66902;41.720;44.796;2024-01-30T01:43:37;23.40;;;19.30;;
77733;SDS011;66902;41.720;44.796;2024-01-30T01:46:10;25.10;;;20.50;;
77733;SDS011;66902;41.720;44.796;2024-01-30T01:48:44;25.30;;;20.60;;
77733;SDS011;66902;41.720;44.796;2024-01-30T01:51:17;27.20;;;20.60;;
77733;SDS011;66902;41.720;44.796;2024-01-30T01:53:51;23.80;;;21.30;;
77733;SDS011;66902;41.720;44.796;2024-01-30T01:56:25;26.40;;;22.30;;
77733;SDS011;66902;41.720;44.796;2024-01-30T01:59:00;26.70;;;21.20;;
77733;SDS011;66902;41.720;44.796;2024-01-30T02:01:38;27.30;;;19.60;;
77733;SDS011;66902;41.720;44.796;2024-01-30T02:04:12;28.90;;;23.40;;
77733;SDS011;66902;41.720;44.796;2024-01-30T02:06:45;29.30;;;22.10;;
77733;SDS011;66902;41.720;44.796;2024-01-30T02:09:19;26.80;;;22.60;;
77733;SDS011;66902;41.720;44.796;2024-01-30T02:11:53;36.20;;;22.60;;
77733;SDS011;66902;41.720;44.796;2024-01-30T02:14:26;35.70;;;23.70;;
77733;SDS011;66902;41.720;44.796;2024-01-30T02:17:00;28.90;;;22.70;;
77733;SDS011;66902;41.720;44.796;2024-01-30T02:19:33;35.10;;;24.10;;
77733;SDS011;66902;41.720;44.796;2024-01-30T02:22:07;34.00;;;23.50;;
77733;SDS011;66902;41.720;44.796;2024-01-30T02:24:40;41.00;;;26.80;;
77733;SDS011;66902;41.720;44.796;2024-01-30T02:27:14;38.90;;;27.50;;
77733;SDS011;66902;41.720;44.796;2024-01-30T02:29:47;39.80;;;27.10;;
77733;SDS011;66902;41.720;44.796;2024-01-30T02:32:21;38.30;;;25.80;;
77733;SDS011;66902;41.720;44.796;2024-01-30T02:34:54;37.10;;;25.00;;
77733;SDS011;66902;41.720;44.796;2024-01-30T02:37:27;33.30;;;25.40;;
77733;SDS011;66902;41.720;44.796;2024-01-30T02:40:01;37.80;;;26.30;;
77733;SDS011;66902;41.720;44.796;2024-01-30T02:42:35;37.40;;;27.60;;
77733;SDS011;66902;41.720;44.796;2024-01-30T02:45:09;35.70;;;25.30;;
77733;SDS011;66902;41.720;44.796;2024-01-30T02:47:45;33.90;;;25.30;;
77733;SDS011;66902;41.720;44.796;2024-01-30T02:50:19;33.70;;;23.70;;
77733;SDS011;66902;41.720;44.796;2024-01-30T02:52:52;34.90;;;25.30;;
77733;SDS011;66902;41.720;44.796;2024-01-30T02:55:26;38.50;;;25.20;;
77733;SDS011;66902;41.720;44.796;2024-01-30T02:58:00;31.20;;;23.50;;
77733;SDS011;66902;41.720;44.796;2024-01-30T03:00:33;36.00;;;25.40;;
77733;SDS011;66902;41.720;44.796;2024-01-30T03:03:07;34.60;;;24.70;;
77733;SDS011;66902;41.720;44.796;2024-01-30T03:05:40;31.70;;;24.30;;
77733;SDS011;66902;41.720;44.796;2024-01-30T03:08:14;37.60;;;25.90;;
77733;SDS011;66902;41.720;44.796;2024-01-30T03:10:47;33.60;;;26.10;;
77733;SDS011;66902;41.720;44.796;2024-01-30T03:13:21;34.40;;;22.40;;
77733;SDS011;66902;41.720;44.796;2024-01-30T03:15:55;38.00;;;25.00;;
77733;SDS011;66902;41.720;44.796;2024-01-30T03:18:28;42.70;;;27.70;;
77733;SDS011;66902;41.720;44.796;2024-01-30T03:21:02;33.90;;;23.00;;
77733;SDS011;66902;41.720;44.796;2024-01-30T03:23:36;30.90;;;23.80;;
77733;SDS011;66902;41.720;44.796;2024-01-30T03:26:09;33.40;;;25.50;;
77733;SDS011;66902;41.720;44.796;2024-01-30T03:28:45;29.90;;;23.50;;
77733;SDS011;66902;41.720;44.796;2024-01-30T03:31:18;35.10;;;26.30;;
77733;SDS011;66902;41.720;44.796;2024-01-30T03:33:52;34.50;;;25.40;;
77733;SDS011;66902;41.720;44.796;2024-01-30T03:36:26;36.30;;;26.40;;
77733;SDS011;66902;41.720;44.796;2024-01-30T03:39:02;31.20;;;24.90;;
77733;SDS011;66902;41.720;44.796;2024-01-30T03:41:35;34.60;;;27.00;;
77733;SDS011;66902;41.720;44.796;2024-01-30T03:44:09;37.10;;;26.70;;
77733;SDS011;66902;41.720;44.796;2024-01-30T03:46:42;38.70;;;25.70;;
77733;SDS011;66902;41.720;44.796;2024-01-30T03:49:15;41.10;;;30.20;;
77733;SDS011;66902;41.720;44.796;2024-01-30T03:51:49;43.40;;;26.60;;
77733;SDS011;66902;41.720;44.796;2024-01-30T03:54:22;38.20;;;30.00;;
77733;SDS011;66902;41.720;44.796;2024-01-30T03:56:55;33.50;;;25.90;;
77733;SDS011;66902;41.720;44.796;2024-01-30T03:59:29;40.70;;;30.20;;
77733;SDS011;66902;41.720;44.796;2024-01-30T04:02:03;39.80;;;30.30;;
77733;SDS011;66902;41.720;44.796;2024-01-30T04:04:36;41.20;;;30.20;;
77733;SDS011;66902;41.720;44.796;2024-01-30T04:07:10;38.30;;;29.50;;
77733;SDS011;66902;41.720;44.796;2024-01-30T04:09:44;44.60;;;28.60;;
77733;SDS011;66902;41.720;44.796;2024-01-30T04:12:17;32.10;;;27.40;;
77733;SDS011;66902;41.720;44.796;2024-01-30T04:14:51;37.40;;;29.10;;
77733;SDS011;66902;41.720;44.796;2024-01-30T04:17:24;37.40;;;29.50;;
77733;SDS011;66902;41.720;44.796;2024-01-30T04:19:58;40.70;;;28.60;;
77733;SDS011;66902;41.720;44.796;2024-01-30T04:22:32;39.80;;;28.00;;
77733;SDS011;66902;41.720;44.796;2024-01-30T04:25:06;31.50;;;24.40;;
77733;SDS011;66902;41.720;44.796;2024-01-30T04:27:40;31.00;;;22.80;;
77733;SDS011;66902;41.720;44.796;2024-01-30T04:30:14;29.30;;;23.10;;
77733;SDS011;66902;41.720;44.796;2024-01-30T04:32:48;28.40;;;22.60;;
77733;SDS011;66902;41.720;44.796;2024-01-30T04:35:21;31.70;;;21.00;;
77733;SDS011;66902;41.720;44.796;2024-01-30T04:37:55;27.80;;;23.20;;
77733;SDS011;66902;41.720;44.796;2024-01-30T04:40:28;28.20;;;22.00;;
77733;SDS011;66902;41.720;44.796;2024-01-30T04:43:02;31.30;;;22.00;;
77733;SDS011;66902;41.720;44.796;2024-01-30T04:45:35;29.60;;;23.50;;
77733;SDS011;66902;41.720;44.796;2024-01-30T04:48:09;29.40;;;23.70;;
77733;SDS011;66902;41.720;44.796;2024-01-30T04:50:42;31.40;;;25.30;;
77733;SDS011;66902;41.720;44.796;2024-01-30T04:53:16;30.80;;;24.70;;
77733;SDS011;66902;41.720;44.796;2024-01-30T04:55:50;30.50;;;23.90;;
77733;SDS011;66902;41.720;44.796;2024-01-30T04:58:23;29.30;;;20.70;;
77733;SDS011;66902;41.720;44.796;2024-01-30T05:00:57;26.80;;;22.60;;
77733;SDS011;66902;41.720;44.796;2024-01-30T05:03:34;25.50;;;21.60;;
77733;SDS011;66902;41.720;44.796;2024-01-30T05:06:07;30.10;;;22.30;;
77733;SDS011;66902;41.720;44.796;2024-01-30T05:08:41;25.80;;;21.70;;
77733;SDS011;66902;41.720;44.796;2024-01-30T05:11:14;23.60;;;20.70;;
77733;SDS011;66902;41.720;44.796;2024-01-30T05:13:48;29.20;;;22.50;;
77733;SDS011;66902;41.720;44.796;2024-01-30T05:16:21;34.00;;;21.60;;
77733;SDS011;66902;41.720;44.796;2024-01-30T05:18:55;28.00;;;22.00;;
77733;SDS011;66902;41.720;44.796;2024-01-30T05:21:31;33.40;;;21.60;;
77733;SDS011;66902;41.720;44.796;2024-01-30T05:24:05;27.30;;;22.30;;
77733;SDS011;66902;41.720;44.796;2024-01-30T05:26:40;29.40;;;20.80;;
77733;SDS011;66902;41.720;44.796;2024-01-30T05:29:13;27.40;;;19.90;;
77733;SDS011;66902;41.720;44.796;2024-01-30T05:31:47;32.80;;;20.90;;
77733;SDS011;66902;41.720;44.796;2024-01-30T05:34:20;26.50;;;20.90;;
77733;SDS011;66902;41.720;44.796;2024-01-30T05:36:54;28.10;;;20.40;;
77733;SDS011;66902;41.720;44.796;2024-01-30T05:39:27;31.70;;;21.70;;
77733;SDS011;66902;41.720;44.796;2024-01-30T05:42:03;30.50;;;22.10;;
77733;SDS011;66902;41.720;44.796;2024-01-30T05:44:37;28.90;;;21.30;;
77733;SDS011;66902;41.720;44.796;2024-01-30T05:47:10;25.40;;;21.20;;
77733;SDS011;66902;41.720;44.796;2024-01-30T05:49:44;33.90;;;22.90;;
77733;SDS011;66902;41.720;44.796;2024-01-30T05:52:17;39.80;;;21.60;;
77733;SDS011;66902;41.720;44.796;2024-01-30T05:54:50;33.20;;;20.90;;
77733;SDS011;66902;41.720;44.796;2024-01-30T05:57:24;26.00;;;21.10;;
77733;SDS011;66902;41.720;44.796;2024-01-30T05:59:58;32.20;;;21.80;;
77733;SDS011;66902;41.720;44.796;2024-01-30T06:02:31;27.40;;;21.90;;
77733;SDS011;66902;41.720;44.796;2024-01-30T06:05:05;27.30;;;21.70;;
77733;SDS011;66902;41.720;44.796;2024-01-30T06:07:39;35.50;;;22.50;;
77733;SDS011;66902;41.720;44.796;2024-01-30T06:10:13;30.30;;;23.90;;
77733;SDS011;66902;41.720;44.796;2024-01-30T06:12:47;29.70;;;22.50;;
77733;SDS011;66902;41.720;44.796;2024-01-30T06:15:21;31.20;;;22.90;;
77733;SDS011;66902;41.720;44.796;2024-01-30T06:17:54;24.00;;;20.60;;
77733;SDS011;66902;41.720;44.796;2024-01-30T06:20:28;30.10;;;21.00;;
77733;SDS011;66902;41.720;44.796;2024-01-30T06:23:02;34.30;;;23.40;;
77733;SDS011;66902;41.720;44.796;2024-01-30T06:25:35;28.10;;;20.20;;
77733;SDS011;66902;41.720;44.796;2024-01-30T06:28:08;29.10;;;19.70;;
77733;SDS011;66902;41.720;44.796;2024-01-30T06:30:42;27.90;;;18.50;;
77733;SDS011;66902;41.720;44.796;2024-01-30T06:33:16;31.40;;;18.30;;
77733;SDS011;66902;41.720;44.796;2024-01-30T06:35:49;44.40;;;20.80;;
77733;SDS011;66902;41.720;44.796;2024-01-30T06:38:23;28.30;;;18.50;;
77733;SDS011;66902;41.720;44.796;2024-01-30T06:40:57;26.00;;;19.70;;
77733;SDS011;66902;41.720;44.796;2024-01-30T06:43:30;29.10;;;19.70;;
77733;SDS011;66902;41.720;44.796;2024-01-30T06:46:04;30.60;;;19.90;;
77733;SDS011;66902;41.720;44.796;2024-01-30T06:48:37;29.50;;;20.60;;
77733;SDS011;66902;41.720;44.796;2024-01-30T06:51:13;31.60;;;22.50;;
77733;SDS011;66902;41.720;44.796;2024-01-30T06:53:47;31.30;;;23.70;;
77733;SDS011;66902;41.720;44.796;2024-01-30T06:56:21;32.20;;;22.90;;
77733;SDS011;66902;41.720;44.796;2024-01-30T06:58:55;38.10;;;21.60;;
77733;SDS011;66902;41.720;44.796;2024-01-30T07:01:29;32.70;;;21.30;;
77733;SDS011;66902;41.720;44.796;2024-01-30T07:04:03;27.10;;;20.50;;
77733;SDS011;66902;41.720;44.796;2024-01-30T07:06:36;34.40;;;21.70;;
77733;SDS011;66902;41.720;44.796;2024-01-30T07:09:10;29.00;;;20.00;;
77733;SDS011;66902;41.720;44.796;2024-01-30T07:11:43;35.10;;;21.40;;
77733;SDS011;66902;41.720;44.796;2024-01-30T07:14:17;34.70;;;22.50;;
77733;SDS011;66902;41.720;44.796;2024-01-30T07:16:50;34.70;;;22.90;;
77733;SDS011;66902;41.720;44.796;2024-01-30T07:19:24;33.70;;;20.50;;
77733;SDS011;66902;41.720;44.796;2024-01-30T07:21:57;33.00;;;20.40;;
77733;SDS011;66902;41.720;44.796;2024-01-30T07:24:31;28.10;;;21.40;;
77733;SDS011;66902;41.720;44.796;2024-01-30T07:27:05;25.80;;;21.10;;
77733;SDS011;66902;41.720;44.796;2024-01-30T07:29:39;31.30;;;22.50;;
77733;SDS011;66902;41.720;44.796;2024-01-30T07:32:12;32.50;;;19.50;;
77733;SDS011;66902;41.720;44.796;2024-01-30T07:34:46;33.80;;;21.60;;
77733;SDS011;66902;41.720;44.796;2024-01-30T07:37:35;25.20;;;22.20;;
77733;SDS011;66902;41.720;44.796;2024-01-30T07:40:09;27.60;;;20.20;;
77733;SDS011;66902;41.720;44.796;2024-01-30T07:42:44;35.90;;;21.80;;
77733;SDS011;66902;41.720;44.796;2024-01-30T07:45:19;29.50;;;21.00;;
77733;SDS011;66902;41.720;44.796;2024-01-30T07:47:54;29.90;;;18.80;;
77733;SDS011;66902;41.720;44.796;2024-01-30T07:50:28;28.20;;;18.60;;
77733;SDS011;66902;41.720;44.796;2024-01-30T07:53:02;20.60;;;18.00;;
77733;SDS011;66902;41.720;44.796;2024-01-30T07:55:35;33.60;;;21.60;;
77733;SDS011;66902;41.720;44.796;2024-01-30T07:58:09;27.80;;;21.60;;
77733;SDS011;66902;41.720;44.796;2024-01-30T08:00:42;26.10;;;21.20;;
77733;SDS011;66902;41.720;44.796;2024-01-30T08:03:16;26.70;;;20.30;;
77733;SDS011;66902;41.720;44.796;2024-01-30T08:05:50;19.50;;;17.50;;
77733;SDS011;66902;41.720;44.796;2024-01-30T08:08:23;27.00;;;18.80;;
77733;SDS011;66902;41.720;44.796;2024-01-30T08:10:57;36.90;;;26.40;;
77733;SDS011;66902;41.720;44.796;2024-01-30T08:13:30;28.40;;;23.30;;
77733;SDS011;66902;41.720;44.796;2024-01-30T08:16:05;24.50;;;19.60;;
77733;SDS011;66902;41.720;44.796;2024-01-30T08:18:43;28.60;;;20.00;;
77733;SDS011;66902;41.720;44.796;2024-01-30T08:21:16;26.50;;;19.50;;
77733;SDS011;66902;41.720;44.796;2024-01-30T08:23:50;32.80;;;21.20;;
77733;SDS011;66902;41.720;44.796;2024-01-30T08:26:23;30.00;;;21.10;;
77733;SDS011;66902;41.720;44.796;2024-01-30T08:28:57;26.80;;;21.40;;
77733;SDS011;66902;41.720;44.796;2024-01-30T08:31:30;33.20;;;22.50;;
77733;SDS011;66902;41.720;44.796;2024-01-30T08:34:04;27.70;;;23.60;;
77733;SDS011;66902;41.720;44.796;2024-01-30T08:36:38;25.80;;;21.40;;
77733;SDS011;66902;41.720;44.796;2024-01-30T08:39:11;24.20;;;20.10;;
77733;SDS011;66902;41.720;44.796;2024-01-30T08:41:45;30.00;;;22.90;;
77733;SDS011;66902;41.720;44.796;2024-01-30T08:44:18;27.30;;;19.80;;
77733;SDS011;66902;41.720;44.796;2024-01-30T08:46:52;28.10;;;21.70;;
77733;SDS011;66902;41.720;44.796;2024-01-30T08:49:26;27.40;;;22.00;;
77733;SDS011;66902;41.720;44.796;2024-01-30T08:52:00;26.30;;;22.70;;
77733;SDS011;66902;41.720;44.796;2024-01-30T08:54:33;25.00;;;21.80;;
77733;SDS011;66902;41.720;44.796;2024-01-30T08:57:07;32.40;;;23.60;;
77733;SDS011;66902;41.720;44.796;2024-01-30T08:59:41;25.60;;;22.70;;
77733;SDS011;66902;41.720;44.796;2024-01-30T09:02:16;27.00;;;23.80;;
77733;SDS011;66902;41.720;44.796;2024-01-30T09:04:49;27.20;;;21.40;;
77733;SDS011;66902;41.720;44.796;2024-01-30T09:07:24;28.20;;;22.00;;
77733;SDS011;66902;41.720;44.796;2024-01-30T09:09:57;37.00;;;24.00;;
77733;SDS011;66902;41.720;44.796;2024-01-30T09:12:31;27.40;;;24.10;;
77733;SDS011;66902;41.720;44.796;2024-01-30T09:15:05;34.10;;;24.10;;
77733;SDS011;66902;41.720;44.796;2024-01-30T09:17:39;27.30;;;23.50;;
77733;SDS011;66902;41.720;44.796;2024-01-30T09:20:12;27.80;;;22.40;;
77733;SDS011;66902;41.720;44.796;2024-01-30T09:22:46;31.00;;;20.30;;
77733;SDS011;66902;41.720;44.796;2024-01-30T09:25:20;24.90;;;21.60;;
77733;SDS011;66902;41.720;44.796;2024-01-30T09:27:53;23.90;;;19.00;;
77733;SDS011;66902;41.720;44.796;2024-01-30T09:30:27;19.30;;;17.20;;
77733;SDS011;66902;41.720;44.796;2024-01-30T09:33:00;20.10;;;17.20;;
77733;SDS011;66902;41.720;44.796;2024-01-30T09:35:34;20.10;;;17.30;;
77733;SDS011;66902;41.720;44.796;2024-01-30T09:38:08;24.50;;;20.30;;
77733;SDS011;66902;41.720;44.796;2024-01-30T09:40:42;25.20;;;20.80;;
77733;SDS011;66902;41.720;44.796;2024-01-30T09:43:15;24.40;;;19.70;;
77733;SDS011;66902;41.720;44.796;2024-01-30T09:45:52;21.50;;;18.90;;
77733;SDS011;66902;41.720;44.796;2024-01-30T09:48:27;26.50;;;21.50;;
77733;SDS011;66902;41.720;44.796;2024-01-30T09:51:00;23.20;;;20.60;;
77733;SDS011;66902;41.720;44.796;2024-01-30T09:53:35;24.20;;;20.80;;
77733;SDS011;66902;41.720;44.796;2024-01-30T09:56:09;24.00;;;17.80;;
77733;SDS011;66902;41.720;44.796;2024-01-30T09:58:43;26.30;;;19.90;;
77733;SDS011;66902;41.720;44.796;2024-01-30T10:01:18;24.60;;;18.40;;
77733;SDS011;66902;41.720;44.796;2024-01-30T10:03:51;19.80;;;17.50;;
77733;SDS011;66902;41.720;44.796;2024-01-30T10:06:26;24.90;;;19.60;;
77733;SDS011;66902;41.720;44.796;2024-01-30T10:09:00;23.90;;;18.60;;
77733;SDS011;66902;41.720;44.796;2024-01-30T10:11:34;19.60;;;15.70;;
77733;SDS011;66902;41.720;44.796;2024-01-30T10:14:07;25.70;;;19.60;;
77733;SDS011;66902;41.720;44.796;2024-01-30T10:16:41;22.80;;;17.50;;
77733;SDS011;66902;41.720;44.796;2024-01-30T10:19:17;24.70;;;18.20;;
77733;SDS011;66902;41.720;44.796;2024-01-30T10:21:51;24.90;;;18.70;;
77733;SDS011;66902;41.720;44.796;2024-01-30T10:24:27;18.20;;;16.20;;
77733;SDS011;66902;41.720;44.796;2024-01-30T10:27:01;19.50;;;16.30;;
77733;SDS011;66902;41.720;44.796;2024-01-30T10:29:37;15.30;;;13.30;;
77733;SDS011;66902;41.720;44.796;2024-01-30T10:32:10;18.60;;;12.80;;
77733;SDS011;66902;41.720;44.796;2024-01-30T10:34:44;13.60;;;11.80;;
77733;SDS011;66902;41.720;44.796;2024-01-30T10:37:17;14.10;;;12.60;;
77733;SDS011;66902;41.720;44.796;2024-01-30T10:39:53;17.80;;;13.00;;
77733;SDS011;66902;41.720;44.796;2024-01-30T10:42:27;22.20;;;19.00;;
77733;SDS011;66902;41.720;44.796;2024-01-30T10:45:06;22.00;;;15.70;;
77733;SDS011;66902;41.720;44.796;2024-01-30T10:47:43;19.70;;;15.80;;
77733;SDS011;66902;41.720;44.796;2024-01-30T10:50:20;16.90;;;15.10;;
77733;SDS011;66902;41.720;44.796;2024-01-30T10:52:53;14.30;;;11.90;;
77733;SDS011;66902;41.720;44.796;2024-01-30T10:55:28;18.40;;;13.60;;
77733;SDS011;66902;41.720;44.796;2024-01-30T10:58:02;14.20;;;12.20;;
77733;SDS011;66902;41.720;44.796;2024-01-30T11:00:36;14.50;;;11.20;;
77733;SDS011;66902;41.720;44.796;2024-01-30T11:03:09;14.10;;;11.20;;
77733;SDS011;66902;41.720;44.796;2024-01-30T11:05:43;14.10;;;11.00;;
77733;SDS011;66902;41.720;44.796;2024-01-30T11:08:25;13.00;;;10.90;;
77733;SDS011;66902;41.720;44.796;2024-01-30T11:10:59;12.40;;;10.70;;
77733;SDS011;66902;41.720;44.796;2024-01-30T11:13:32;18.20;;;10.10;;
77733;SDS011;66902;41.720;44.796;2024-01-30T11:16:06;11.80;;;9.30;;
77733;SDS011;66902;41.720;44.796;2024-01-30T11:18:40;13.20;;;11.00;;
77733;SDS011;66902;41.720;44.796;2024-01-30T11:21:13;9.80;;;8.80;;
77733;SDS011;66902;41.720;44.796;2024-01-30T11:23:47;10.60;;;9.00;;
77733;SDS011;66902;41.720;44.796;2024-01-30T11:26:25;14.30;;;9.60;;
77733;SDS011;66902;41.720;44.796;2024-01-30T11:29:07;10.90;;;9.70;;
77733;SDS011;66902;41.720;44.796;2024-01-30T11:31:40;12.40;;;10.00;;
77733;SDS011;66902;41.720;44.796;2024-01-30T11:34:24;12.70;;;10.30;;
77733;SDS011;66902;41.720;44.796;2024-01-30T11:36:59;13.30;;;11.80;;
77733;SDS011;66902;41.720;44.796;2024-01-30T11:39:34;15.50;;;11.80;;
77733;SDS011;66902;41.720;44.796;2024-01-30T11:42:11;13.40;;;11.50;;
77733;SDS011;66902;41.720;44.796;2024-01-30T11:44:47;12.00;;;9.70;;
77733;SDS011;66902;41.720;44.796;2024-01-30T11:47:21;15.60;;;10.90;;
77733;SDS011;66902;41.720;44.796;2024-01-30T11:49:55;11.30;;;10.20;;
77733;SDS011;66902;41.720;44.796;2024-01-30T11:52:30;10.00;;;8.90;;
77733;SDS011;66902;41.720;44.796;2024-01-30T11:55:04;11.40;;;10.20;;
77733;SDS011;66902;41.720;44.796;2024-01-30T11:57:38;11.40;;;10.30;;
77733;SDS011;66902;41.720;44.796;2024-01-30T12:00:15;10.20;;;8.70;;
77733;SDS011;66902;41.720;44.796;2024-01-30T12:02:51;9.90;;;8.90;;
77733;SDS011;66902;41.720;44.796;2024-01-30T12:05:27;17.20;;;8.70;;
77733;SDS011;66902;41.720;44.796;2024-01-30T12:08:00;9.70;;;8.70;;
77733;SDS011;66902;41.720;44.796;2024-01-30T12:10:34;15.30;;;9.40;;
77733;SDS011;66902;41.720;44.796;2024-01-30T12:13:08;12.10;;;9.60;;
77733;SDS011;66902;41.720;44.796;2024-01-30T12:15:42;12.40;;;10.90;;
77733;SDS011;66902;41.720;44.796;2024-01-30T12:18:18;13.20;;;11.70;;
77733;SDS011;66902;41.720;44.796;2024-01-30T12:20:58;15.20;;;11.60;;
77733;SDS011;66902;41.720;44.796;2024-01-30T12:23:32;11.50;;;10.20;;
77733;SDS011;66902;41.720;44.796;2024-01-30T12:26:06;13.10;;;10.40;;
77733;SDS011;66902;41.720;44.796;2024-01-30T12:28:48;15.10;;;12.30;;
77733;SDS011;66902;41.720;44.796;2024-01-30T12:31:26;13.60;;;11.70;;
77733;SDS011;66902;41.720;44.796;2024-01-30T12:34:00;17.80;;;12.60;;
77733;SDS011;66902;41.720;44.796;2024-01-30T12:36:34;16.90;;;12.60;;
77733;SDS011;66902;41.720;44.796;2024-01-30T12:39:10;13.70;;;12.30;;
77733;SDS011;66902;41.720;44.796;2024-01-30T12:44:16;14.70;;;12.80;;
77733;SDS011;66902;41.720;44.796;2024-01-30T12:46:50;16.00;;;11.60;;
77733;SDS011;66902;41.720;44.796;2024-01-30T12:49:24;15.30;;;12.80;;
77733;SDS011;66902;41.720;44.796;2024-01-30T12:51:58;16.90;;;14.50;;
77733;SDS011;66902;41.720;44.796;2024-01-30T12:54:31;19.20;;;12.60;;
77733;SDS011;66902;41.720;44.796;2024-01-30T12:57:06;14.40;;;12.30;;
77733;SDS011;66902;41.720;44.796;2024-01-30T12:59:39;14.80;;;13.30;;
77733;SDS011;66902;41.720;44.796;2024-01-30T13:02:13;14.90;;;13.00;;
77733;SDS011;66902;41.720;44.796;2024-01-30T13:04:47;14.80;;;13.30;;
77733;SDS011;66902;41.720;44.796;2024-01-30T13:07:21;16.80;;;14.50;;
77733;SDS011;66902;41.720;44.796;2024-01-30T13:09:54;17.80;;;13.00;;
77733;SDS011;66902;41.720;44.796;2024-01-30T13:12:34;18.80;;;14.40;;
77733;SDS011;66902;41.720;44.796;2024-01-30T13:15:08;16.90;;;14.00;;
77733;SDS011;66902;41.720;44.796;2024-01-30T13:17:42;16.80;;;14.10;;
77733;SDS011;66902;41.720;44.796;2024-01-30T13:20:17;16.20;;;14.50;;
77733;SDS011;66902;41.720;44.796;2024-01-30T13:22:51;18.20;;;15.60;;
77733;SDS011;66902;41.720;44.796;2024-01-30T13:25:25;16.90;;;15.00;;
77733;SDS011;66902;41.720;44.796;2024-01-30T13:27:59;16.00;;;14.40;;
77733;SDS011;66902;41.720;44.796;2024-01-30T13:30:33;21.40;;;14.60;;
77733;SDS011;66902;41.720;44.796;2024-01-30T13:33:07;18.90;;;15.60;;
77733;SDS011;66902;41.720;44.796;2024-01-30T13:35:40;24.90;;;17.40;;
77733;SDS011;66902;41.720;44.796;2024-01-30T13:38:14;16.10;;;14.40;;
77733;SDS011;66902;41.720;44.796;2024-01-30T13:40:48;17.90;;;16.00;;
77733;SDS011;66902;41.720;44.796;2024-01-30T13:43:22;19.80;;;16.30;;
77733;SDS011;66902;41.720;44.796;2024-01-30T13:45:55;26.60;;;22.90;;
77733;SDS011;66902;41.720;44.796;2024-01-30T13:48:29;21.80;;;17.80;;
77733;SDS011;66902;41.720;44.796;2024-01-30T13:51:03;21.60;;;18.20;;
77733;SDS011;66902;41.720;44.796;2024-01-30T13:53:37;17.10;;;14.90;;
77733;SDS011;66902;41.720;44.796;2024-01-30T13:56:10;20.10;;;15.00;;
77733;SDS011;66902;41.720;44.796;2024-01-30T13:58:44;15.50;;;13.90;;
77733;SDS011;66902;41.720;44.796;2024-01-30T14:01:18;26.40;;;17.70;;
77733;SDS011;66902;41.720;44.796;2024-01-30T14:03:51;19.50;;;16.70;;
77733;SDS011;66902;41.720;44.796;2024-01-30T14:06:25;19.10;;;17.10;;
77733;SDS011;66902;41.720;44.796;2024-01-30T14:08:59;18.20;;;15.30;;
77733;SDS011;66902;41.720;44.796;2024-01-30T14:11:37;16.40;;;14.80;;
77733;SDS011;66902;41.720;44.796;2024-01-30T14:14:11;17.60;;;15.80;;
77733;SDS011;66902;41.720;44.796;2024-01-30T14:16:45;23.70;;;15.30;;
77733;SDS011;66902;41.720;44.796;2024-01-30T14:19:18;16.00;;;14.40;;
77733;SDS011;66902;41.720;44.796;2024-01-30T14:21:52;19.10;;;16.70;;
77733;SDS011;66902;41.720;44.796;2024-01-30T14:24:26;22.00;;;17.70;;
77733;SDS011;66902;41.720;44.796;2024-01-30T14:26:59;21.90;;;16.50;;
77733;SDS011;66902;41.720;44.796;2024-01-30T14:29:33;18.00;;;16.10;;
77733;SDS011;66902;41.720;44.796;2024-01-30T14:32:07;16.90;;;15.20;;
77733;SDS011;66902;41.720;44.796;2024-01-30T14:34:40;19.80;;;16.80;;
77733;SDS011;66902;41.720;44.796;2024-01-30T14:37:14;18.40;;;16.50;;
77733;SDS011;66902;41.720;44.796;2024-01-30T14:39:48;16.20;;;14.20;;
77733;SDS011;66902;41.720;44.796;2024-01-30T14:42:22;16.30;;;14.70;;
77733;SDS011;66902;41.720;44.796;2024-01-30T14:44:55;18.20;;;15.70;;
77733;SDS011;66902;41.720;44.796;2024-01-30T14:47:29;17.80;;;16.00;;
77733;SDS011;66902;41.720;44.796;2024-01-30T14:50:02;19.60;;;17.50;;